sensor_id;sensor_type;location;lat;lon;timestamp;P1;durP1;ratioP1;P2;durP2;ratioP2
57443;SDS011;43289;52.962;6.196;2023-04-24T00:01:53;3.30;;;2.05;;
57443;SDS011;43289;52.962;6.196;2023-04-24T00:04:20;4.57;;;2.47;;
57443;SDS011;43289;52.962;6.196;2023-04-24T00:06:46;4.07;;;2.33;;
57443;SDS011;43289;52.962;6.196;2023-04-24T00:09:14;3.85;;;2.40;;
57443;SDS011;43289;52.962;6.196;2023-04-24T00:11:40;4.50;;;2.30;;
57443;SDS011;43289;52.962;6.196;2023-04-24T00:14:06;3.88;;;2.50;;
57443;SDS011;43289;52.962;6.196;2023-04-24T00:16:32;3.97;;;1.90;;
57443;SDS011;43289;52.962;6.196;2023-04-24T00:18:58;5.82;;;2.42;;
57443;SDS011;43289;52.962;6.196;2023-04-24T00:21:25;4.82;;;2.00;;
57443;SDS011;43289;52.962;6.196;2023-04-24T00:23:52;4.80;;;2.17;;
57443;SDS011;43289;52.962;6.196;2023-04-24T00:26:18;3.70;;;2.50;;
57443;SDS011;43289;52.962;6.196;2023-04-24T00:28:44;3.88;;;2.33;;
57443;SDS011;43289;52.962;6.196;2023-04-24T00:31:10;6.47;;;2.45;;
57443;SDS011;43289;52.962;6.196;2023-04-24T00:33:36;4.88;;;2.33;;
57443;SDS011;43289;52.962;6.196;2023-04-24T00:36:02;2.95;;;1.83;;
57443;SDS011;43289;52.962;6.196;2023-04-24T00:38:28;4.10;;;2.33;;
57443;SDS011;43289;52.962;6.196;2023-04-24T00:40:54;3.25;;;1.90;;
57443;SDS011;43289;52.962;6.196;2023-04-24T00:43:20;3.08;;;2.00;;
57443;SDS011;43289;52.962;6.196;2023-04-24T00:45:46;3.20;;;2.10;;
57443;SDS011;43289;52.962;6.196;2023-04-24T00:48:12;4.90;;;2.72;;
57443;SDS011;43289;52.962;6.196;2023-04-24T00:50:38;8.27;;;3.28;;
57443;SDS011;43289;52.962;6.196;2023-04-24T00:53:05;3.60;;;2.00;;
57443;SDS011;43289;52.962;6.196;2023-04-24T00:55:31;3.53;;;2.25;;
57443;SDS011;43289;52.962;6.196;2023-04-24T00:57:57;4.72;;;2.55;;
57443;SDS011;43289;52.962;6.196;2023-04-24T01:00:24;3.50;;;2.25;;
57443;SDS011;43289;52.962;6.196;2023-04-24T01:02:50;4.88;;;2.13;;
57443;SDS011;43289;52.962;6.196;2023-04-24T01:05:19;3.42;;;2.25;;
57443;SDS011;43289;52.962;6.196;2023-04-24T01:07:46;3.75;;;2.10;;
57443;SDS011;43289;52.962;6.196;2023-04-24T01:10:14;3.15;;;1.98;;
57443;SDS011;43289;52.962;6.196;2023-04-24T01:12:40;3.90;;;2.42;;
57443;SDS011;43289;52.962;6.196;2023-04-24T01:15:06;4.45;;;2.33;;
57443;SDS011;43289;52.962;6.196;2023-04-24T01:17:33;4.43;;;2.42;;
57443;SDS011;43289;52.962;6.196;2023-04-24T01:19:59;5.18;;;2.20;;
57443;SDS011;43289;52.962;6.196;2023-04-24T01:22:26;4.38;;;2.45;;
57443;SDS011;43289;52.962;6.196;2023-04-24T01:24:52;4.28;;;2.50;;
57443;SDS011;43289;52.962;6.196;2023-04-24T01:27:18;4.68;;;2.75;;
57443;SDS011;43289;52.962;6.196;2023-04-24T01:29:45;5.68;;;2.70;;
57443;SDS011;43289;52.962;6.196;2023-04-24T01:32:12;4.20;;;3.00;;
57443;SDS011;43289;52.962;6.196;2023-04-24T01:34:38;5.35;;;2.78;;
57443;SDS011;43289;52.962;6.196;2023-04-24T01:37:04;4.85;;;3.58;;
57443;SDS011;43289;52.962;6.196;2023-04-24T01:39:30;4.65;;;3.30;;
57443;SDS011;43289;52.962;6.196;2023-04-24T01:41:58;6.03;;;3.78;;
57443;SDS011;43289;52.962;6.196;2023-04-24T01:44:24;5.05;;;3.50;;
57443;SDS011;43289;52.962;6.196;2023-04-24T01:46:51;5.82;;;4.00;;
57443;SDS011;43289;52.962;6.196;2023-04-24T01:49:18;6.75;;;4.20;;
57443;SDS011;43289;52.962;6.196;2023-04-24T01:51:44;8.05;;;4.18;;
57443;SDS011;43289;52.962;6.196;2023-04-24T01:54:11;6.18;;;4.97;;
57443;SDS011;43289;52.962;6.196;2023-04-24T01:56:37;8.70;;;4.90;;
57443;SDS011;43289;52.962;6.196;2023-04-24T01:59:06;7.65;;;5.30;;
57443;SDS011;43289;52.962;6.196;2023-04-24T02:01:36;9.10;;;5.68;;
57443;SDS011;43289;52.962;6.196;2023-04-24T02:04:02;7.45;;;5.75;;
57443;SDS011;43289;52.962;6.196;2023-04-24T02:06:28;8.20;;;6.13;;
57443;SDS011;43289;52.962;6.196;2023-04-24T02:08:56;8.70;;;6.43;;
57443;SDS011;43289;52.962;6.196;2023-04-24T02:11:37;8.93;;;6.43;;
57443;SDS011;43289;52.962;6.196;2023-04-24T02:14:03;10.32;;;6.72;;
57443;SDS011;43289;52.962;6.196;2023-04-24T02:16:29;8.55;;;6.78;;
57443;SDS011;43289;52.962;6.196;2023-04-24T02:18:57;9.02;;;7.38;;
57443;SDS011;43289;52.962;6.196;2023-04-24T02:21:23;10.75;;;8.30;;
57443;SDS011;43289;52.962;6.196;2023-04-24T02:23:49;9.88;;;8.18;;
57443;SDS011;43289;52.962;6.196;2023-04-24T02:26:15;10.25;;;8.43;;
57443;SDS011;43289;52.962;6.196;2023-04-24T02:28:41;12.65;;;9.27;;
57443;SDS011;43289;52.962;6.196;2023-04-24T02:31:07;11.18;;;8.43;;
57443;SDS011;43289;52.962;6.196;2023-04-24T02:33:33;13.80;;;9.85;;
57443;SDS011;43289;52.962;6.196;2023-04-24T02:35:59;11.90;;;9.20;;
57443;SDS011;43289;52.962;6.196;2023-04-24T02:38:25;13.07;;;9.30;;
57443;SDS011;43289;52.962;6.196;2023-04-24T02:40:51;14.60;;;9.45;;
57443;SDS011;43289;52.962;6.196;2023-04-24T02:43:17;13.07;;;10.00;;
57443;SDS011;43289;52.962;6.196;2023-04-24T02:45:43;13.63;;;9.90;;
57443;SDS011;43289;52.962;6.196;2023-04-24T02:48:09;11.27;;;9.65;;
57443;SDS011;43289;52.962;6.196;2023-04-24T02:53:33;15.60;;;12.48;;
57443;SDS011;43289;52.962;6.196;2023-04-24T02:55:59;15.07;;;11.15;;
57443;SDS011;43289;52.962;6.196;2023-04-24T02:58:25;15.75;;;12.20;;
57443;SDS011;43289;52.962;6.196;2023-04-24T03:00:54;15.45;;;13.13;;
57443;SDS011;43289;52.962;6.196;2023-04-24T03:03:21;16.50;;;12.93;;
57443;SDS011;43289;52.962;6.196;2023-04-24T03:05:47;16.13;;;12.98;;
57443;SDS011;43289;52.962;6.196;2023-04-24T03:08:13;17.17;;;12.73;;
57443;SDS011;43289;52.962;6.196;2023-04-24T03:10:41;12.98;;;10.73;;
57443;SDS011;43289;52.962;6.196;2023-04-24T03:13:07;18.08;;;11.75;;
57443;SDS011;43289;52.962;6.196;2023-04-24T03:15:33;14.57;;;11.75;;
57443;SDS011;43289;52.962;6.196;2023-04-24T03:17:59;16.23;;;11.75;;
57443;SDS011;43289;52.962;6.196;2023-04-24T03:20:25;13.40;;;10.55;;
57443;SDS011;43289;52.962;6.196;2023-04-24T03:22:51;15.85;;;11.80;;
57443;SDS011;43289;52.962;6.196;2023-04-24T03:25:17;14.70;;;11.18;;
57443;SDS011;43289;52.962;6.196;2023-04-24T03:27:43;13.55;;;10.82;;
57443;SDS011;43289;52.962;6.196;2023-04-24T03:30:09;13.25;;;10.45;;
57443;SDS011;43289;52.962;6.196;2023-04-24T03:32:35;12.45;;;9.82;;
57443;SDS011;43289;52.962;6.196;2023-04-24T03:35:01;12.13;;;10.27;;
57443;SDS011;43289;52.962;6.196;2023-04-24T03:37:28;14.38;;;10.82;;
57443;SDS011;43289;52.962;6.196;2023-04-24T03:39:54;14.93;;;10.25;;
57443;SDS011;43289;52.962;6.196;2023-04-24T03:42:20;12.90;;;10.00;;
57443;SDS011;43289;52.962;6.196;2023-04-24T03:44:46;11.77;;;9.55;;
57443;SDS011;43289;52.962;6.196;2023-04-24T03:47:12;11.80;;;9.35;;
57443;SDS011;43289;52.962;6.196;2023-04-24T03:49:38;13.05;;;9.50;;
57443;SDS011;43289;52.962;6.196;2023-04-24T03:52:04;11.43;;;9.68;;
57443;SDS011;43289;52.962;6.196;2023-04-24T03:54:30;12.13;;;9.43;;
57443;SDS011;43289;52.962;6.196;2023-04-24T03:57:14;13.90;;;10.15;;
57443;SDS011;43289;52.962;6.196;2023-04-24T03:59:40;13.95;;;10.02;;
57443;SDS011;43289;52.962;6.196;2023-04-24T04:02:06;14.27;;;10.05;;
57443;SDS011;43289;52.962;6.196;2023-04-24T04:04:32;14.13;;;11.15;;
57443;SDS011;43289;52.962;6.196;2023-04-24T04:06:58;15.25;;;11.27;;
57443;SDS011;43289;52.962;6.196;2023-04-24T04:09:28;14.02;;;10.38;;
57443;SDS011;43289;52.962;6.196;2023-04-24T04:11:54;15.25;;;11.02;;
57443;SDS011;43289;52.962;6.196;2023-04-24T04:14:20;24.67;;;13.82;;
57443;SDS011;43289;52.962;6.196;2023-04-24T04:16:46;19.35;;;12.70;;
57443;SDS011;43289;52.962;6.196;2023-04-24T04:19:12;21.52;;;13.02;;
57443;SDS011;43289;52.962;6.196;2023-04-24T04:21:38;14.50;;;10.85;;
57443;SDS011;43289;52.962;6.196;2023-04-24T04:24:04;15.45;;;11.27;;
57443;SDS011;43289;52.962;6.196;2023-04-24T04:26:32;10.93;;;8.73;;
57443;SDS011;43289;52.962;6.196;2023-04-24T04:28:58;12.50;;;8.90;;
57443;SDS011;43289;52.962;6.196;2023-04-24T04:31:25;8.13;;;5.20;;
57443;SDS011;43289;52.962;6.196;2023-04-24T04:33:57;7.30;;;4.45;;
57443;SDS011;43289;52.962;6.196;2023-04-24T04:36:23;6.03;;;3.30;;
57443;SDS011;43289;52.962;6.196;2023-04-24T04:38:50;5.20;;;2.78;;
57443;SDS011;43289;52.962;6.196;2023-04-24T04:41:16;2.88;;;2.00;;
57443;SDS011;43289;52.962;6.196;2023-04-24T04:43:43;3.17;;;1.98;;
57443;SDS011;43289;52.962;6.196;2023-04-24T04:46:09;4.05;;;1.90;;
57443;SDS011;43289;52.962;6.196;2023-04-24T04:48:41;3.22;;;1.80;;
57443;SDS011;43289;52.962;6.196;2023-04-24T04:51:07;5.68;;;2.25;;
57443;SDS011;43289;52.962;6.196;2023-04-24T04:53:32;4.60;;;2.15;;
57443;SDS011;43289;52.962;6.196;2023-04-24T04:55:58;6.40;;;2.58;;
57443;SDS011;43289;52.962;6.196;2023-04-24T04:58:29;4.68;;;2.78;;
57443;SDS011;43289;52.962;6.196;2023-04-24T05:00:55;5.28;;;3.08;;
57443;SDS011;43289;52.962;6.196;2023-04-24T05:03:22;5.40;;;2.97;;
57443;SDS011;43289;52.962;6.196;2023-04-24T05:05:47;4.70;;;2.85;;
57443;SDS011;43289;52.962;6.196;2023-04-24T05:08:13;5.85;;;3.28;;
57443;SDS011;43289;52.962;6.196;2023-04-24T05:10:38;6.82;;;3.67;;
57443;SDS011;43289;52.962;6.196;2023-04-24T05:13:04;7.40;;;3.75;;
57443;SDS011;43289;52.962;6.196;2023-04-24T05:15:30;5.88;;;4.30;;
57443;SDS011;43289;52.962;6.196;2023-04-24T05:17:55;7.65;;;3.95;;
57443;SDS011;43289;52.962;6.196;2023-04-24T05:20:21;7.07;;;4.38;;
57443;SDS011;43289;52.962;6.196;2023-04-24T05:22:46;7.38;;;3.97;;
57443;SDS011;43289;52.962;6.196;2023-04-24T05:25:12;6.57;;;4.38;;
57443;SDS011;43289;52.962;6.196;2023-04-24T05:27:38;8.20;;;5.00;;
57443;SDS011;43289;52.962;6.196;2023-04-24T05:30:04;6.18;;;4.20;;
57443;SDS011;43289;52.962;6.196;2023-04-24T05:32:30;7.10;;;4.38;;
57443;SDS011;43289;52.962;6.196;2023-04-24T05:34:56;6.13;;;3.75;;
57443;SDS011;43289;52.962;6.196;2023-04-24T05:37:21;6.05;;;4.10;;
57443;SDS011;43289;52.962;6.196;2023-04-24T05:39:47;7.18;;;4.82;;
57443;SDS011;43289;52.962;6.196;2023-04-24T05:42:12;7.10;;;4.75;;
57443;SDS011;43289;52.962;6.196;2023-04-24T05:44:38;7.30;;;4.50;;
57443;SDS011;43289;52.962;6.196;2023-04-24T05:47:03;7.53;;;4.40;;
57443;SDS011;43289;52.962;6.196;2023-04-24T05:49:29;7.50;;;4.30;;
57443;SDS011;43289;52.962;6.196;2023-04-24T05:51:54;7.68;;;3.95;;
57443;SDS011;43289;52.962;6.196;2023-04-24T05:54:20;7.80;;;4.25;;
57443;SDS011;43289;52.962;6.196;2023-04-24T05:56:46;6.80;;;3.75;;
57443;SDS011;43289;52.962;6.196;2023-04-24T05:59:12;6.53;;;3.95;;
57443;SDS011;43289;52.962;6.196;2023-04-24T06:08:02;11.18;;;4.70;;
57443;SDS011;43289;52.962;6.196;2023-04-24T06:10:28;8.82;;;4.97;;
57443;SDS011;43289;52.962;6.196;2023-04-24T06:12:54;6.93;;;4.18;;
57443;SDS011;43289;52.962;6.196;2023-04-24T06:15:25;8.38;;;4.97;;
57443;SDS011;43289;52.962;6.196;2023-04-24T06:17:52;6.85;;;4.35;;
57443;SDS011;43289;52.962;6.196;2023-04-24T06:20:17;7.80;;;4.30;;
57443;SDS011;43289;52.962;6.196;2023-04-24T06:22:43;5.15;;;3.33;;
57443;SDS011;43289;52.962;6.196;2023-04-24T06:25:09;5.93;;;3.63;;
57443;SDS011;43289;52.962;6.196;2023-04-24T06:27:34;5.60;;;3.50;;
57443;SDS011;43289;52.962;6.196;2023-04-24T06:30:00;5.53;;;3.30;;
57443;SDS011;43289;52.962;6.196;2023-04-24T06:32:26;6.57;;;3.10;;
57443;SDS011;43289;52.962;6.196;2023-04-24T06:34:52;6.85;;;3.35;;
57443;SDS011;43289;52.962;6.196;2023-04-24T06:37:18;4.07;;;2.30;;
57443;SDS011;43289;52.962;6.196;2023-04-24T06:39:45;4.22;;;2.47;;
57443;SDS011;43289;52.962;6.196;2023-04-24T06:42:11;2.88;;;1.92;;
57443;SDS011;43289;52.962;6.196;2023-04-24T06:44:37;3.75;;;2.28;;
57443;SDS011;43289;52.962;6.196;2023-04-24T06:47:06;4.45;;;2.35;;
57443;SDS011;43289;52.962;6.196;2023-04-24T06:49:33;3.80;;;2.50;;
57443;SDS011;43289;52.962;6.196;2023-04-24T06:52:19;7.88;;;3.05;;
57443;SDS011;43289;52.962;6.196;2023-04-24T06:54:47;4.30;;;2.00;;
57443;SDS011;43289;52.962;6.196;2023-04-24T06:57:30;6.22;;;3.15;;
57443;SDS011;43289;52.962;6.196;2023-04-24T07:00:04;6.45;;;2.60;;
57443;SDS011;43289;52.962;6.196;2023-04-24T07:02:32;4.30;;;1.95;;
57443;SDS011;43289;52.962;6.196;2023-04-24T07:04:57;4.55;;;1.88;;
57443;SDS011;43289;52.962;6.196;2023-04-24T07:10:20;5.90;;;2.30;;
57443;SDS011;43289;52.962;6.196;2023-04-24T07:12:48;6.35;;;2.35;;
57443;SDS011;43289;52.962;6.196;2023-04-24T07:15:13;5.22;;;3.13;;
57443;SDS011;43289;52.962;6.196;2023-04-24T07:17:39;5.05;;;2.88;;
57443;SDS011;43289;52.962;6.196;2023-04-24T07:20:08;5.45;;;2.78;;
57443;SDS011;43289;52.962;6.196;2023-04-24T07:22:35;6.10;;;3.00;;
57443;SDS011;43289;52.962;6.196;2023-04-24T07:25:02;6.65;;;2.78;;
57443;SDS011;43289;52.962;6.196;2023-04-24T07:27:28;5.55;;;2.67;;
57443;SDS011;43289;52.962;6.196;2023-04-24T07:30:00;7.65;;;2.47;;
57443;SDS011;43289;52.962;6.196;2023-04-24T07:32:26;6.85;;;3.30;;
57443;SDS011;43289;52.962;6.196;2023-04-24T07:34:52;9.50;;;3.40;;
57443;SDS011;43289;52.962;6.196;2023-04-24T07:37:17;6.75;;;3.85;;
57443;SDS011;43289;52.962;6.196;2023-04-24T07:39:43;8.80;;;4.60;;
57443;SDS011;43289;52.962;6.196;2023-04-24T07:42:09;12.27;;;5.30;;
57443;SDS011;43289;52.962;6.196;2023-04-24T07:47:08;15.38;;;8.18;;
57443;SDS011;43289;52.962;6.196;2023-04-24T07:49:34;12.02;;;7.18;;
57443;SDS011;43289;52.962;6.196;2023-04-24T07:52:00;16.55;;;8.40;;
57443;SDS011;43289;52.962;6.196;2023-04-24T07:54:27;12.32;;;7.50;;
57443;SDS011;43289;52.962;6.196;2023-04-24T07:56:53;16.73;;;8.13;;
57443;SDS011;43289;52.962;6.196;2023-04-24T07:59:20;16.92;;;9.55;;
57443;SDS011;43289;52.962;6.196;2023-04-24T08:01:46;14.70;;;8.10;;
57443;SDS011;43289;52.962;6.196;2023-04-24T08:04:12;13.23;;;7.68;;
57443;SDS011;43289;52.962;6.196;2023-04-24T08:06:38;15.60;;;8.77;;
57443;SDS011;43289;52.962;6.196;2023-04-24T08:09:04;16.17;;;8.10;;
57443;SDS011;43289;52.962;6.196;2023-04-24T08:11:30;14.88;;;10.40;;
57443;SDS011;43289;52.962;6.196;2023-04-24T08:13:56;14.07;;;7.95;;
57443;SDS011;43289;52.962;6.196;2023-04-24T08:16:22;17.05;;;10.25;;
57443;SDS011;43289;52.962;6.196;2023-04-24T08:18:49;17.17;;;11.27;;
57443;SDS011;43289;52.962;6.196;2023-04-24T08:21:15;16.70;;;7.38;;
57443;SDS011;43289;52.962;6.196;2023-04-24T08:23:43;18.10;;;12.75;;
57443;SDS011;43289;52.962;6.196;2023-04-24T08:26:09;17.02;;;11.82;;
57443;SDS011;43289;52.962;6.196;2023-04-24T08:28:36;22.55;;;12.27;;
57443;SDS011;43289;52.962;6.196;2023-04-24T08:31:02;16.75;;;10.27;;
57443;SDS011;43289;52.962;6.196;2023-04-24T08:33:28;19.38;;;11.48;;
57443;SDS011;43289;52.962;6.196;2023-04-24T08:35:59;11.65;;;9.02;;
57443;SDS011;43289;52.962;6.196;2023-04-24T08:38:25;18.40;;;9.60;;
57443;SDS011;43289;52.962;6.196;2023-04-24T08:40:53;12.93;;;7.80;;
57443;SDS011;43289;52.962;6.196;2023-04-24T08:43:21;12.10;;;7.82;;
57443;SDS011;43289;52.962;6.196;2023-04-24T08:45:48;14.18;;;8.25;;
57443;SDS011;43289;52.962;6.196;2023-04-24T08:48:14;11.57;;;7.70;;
57443;SDS011;43289;52.962;6.196;2023-04-24T08:50:41;12.07;;;7.93;;
57443;SDS011;43289;52.962;6.196;2023-04-24T08:53:08;15.38;;;6.90;;
57443;SDS011;43289;52.962;6.196;2023-04-24T08:55:34;11.32;;;5.60;;
57443;SDS011;43289;52.962;6.196;2023-04-24T08:58:00;10.30;;;5.75;;
57443;SDS011;43289;52.962;6.196;2023-04-24T09:00:27;13.98;;;7.05;;
57443;SDS011;43289;52.962;6.196;2023-04-24T09:02:57;14.93;;;6.40;;
57443;SDS011;43289;52.962;6.196;2023-04-24T09:05:24;9.57;;;6.03;;
57443;SDS011;43289;52.962;6.196;2023-04-24T09:07:53;11.50;;;6.20;;
57443;SDS011;43289;52.962;6.196;2023-04-24T09:10:20;12.88;;;6.35;;
57443;SDS011;43289;52.962;6.196;2023-04-24T09:12:47;12.15;;;7.32;;
57443;SDS011;43289;52.962;6.196;2023-04-24T09:15:14;10.48;;;6.53;;
57443;SDS011;43289;52.962;6.196;2023-04-24T09:17:40;11.27;;;6.30;;
57443;SDS011;43289;52.962;6.196;2023-04-24T09:20:06;11.48;;;5.80;;
57443;SDS011;43289;52.962;6.196;2023-04-24T09:22:32;10.35;;;5.18;;
57443;SDS011;43289;52.962;6.196;2023-04-24T09:25:02;15.55;;;6.88;;
57443;SDS011;43289;52.962;6.196;2023-04-24T09:27:30;9.93;;;5.15;;
57443;SDS011;43289;52.962;6.196;2023-04-24T09:29:56;14.70;;;6.00;;
57443;SDS011;43289;52.962;6.196;2023-04-24T09:32:23;9.13;;;5.35;;
57443;SDS011;43289;52.962;6.196;2023-04-24T09:35:04;7.60;;;5.35;;
57443;SDS011;43289;52.962;6.196;2023-04-24T09:37:34;8.95;;;4.47;;
57443;SDS011;43289;52.962;6.196;2023-04-24T09:40:17;12.43;;;5.25;;
57443;SDS011;43289;52.962;6.196;2023-04-24T09:42:43;6.72;;;3.30;;
57443;SDS011;43289;52.962;6.196;2023-04-24T09:45:10;11.48;;;4.65;;
57443;SDS011;43289;52.962;6.196;2023-04-24T09:47:40;9.82;;;3.75;;
57443;SDS011;43289;52.962;6.196;2023-04-24T09:50:10;6.15;;;3.85;;
57443;SDS011;43289;52.962;6.196;2023-04-24T09:52:39;8.63;;;3.92;;
57443;SDS011;43289;52.962;6.196;2023-04-24T09:55:10;8.88;;;3.22;;
57443;SDS011;43289;52.962;6.196;2023-04-24T09:57:40;8.55;;;4.05;;
57443;SDS011;43289;52.962;6.196;2023-04-24T10:00:12;12.48;;;4.35;;
57443;SDS011;43289;52.962;6.196;2023-04-24T10:02:38;7.90;;;4.03;;
57443;SDS011;43289;52.962;6.196;2023-04-24T10:05:04;14.00;;;4.95;;
57443;SDS011;43289;52.962;6.196;2023-04-24T10:07:32;9.77;;;3.85;;
57443;SDS011;43289;52.962;6.196;2023-04-24T10:09:58;9.23;;;4.28;;
57443;SDS011;43289;52.962;6.196;2023-04-24T10:12:25;7.25;;;3.80;;
57443;SDS011;43289;52.962;6.196;2023-04-24T10:14:51;12.60;;;4.28;;
57443;SDS011;43289;52.962;6.196;2023-04-24T10:17:18;9.73;;;3.72;;
57443;SDS011;43289;52.962;6.196;2023-04-24T10:19:45;12.43;;;2.83;;
57443;SDS011;43289;52.962;6.196;2023-04-24T10:22:12;9.90;;;4.20;;
57443;SDS011;43289;52.962;6.196;2023-04-24T10:24:40;8.18;;;3.38;;
57443;SDS011;43289;52.962;6.196;2023-04-24T10:27:07;6.88;;;2.72;;
57443;SDS011;43289;52.962;6.196;2023-04-24T10:29:37;8.10;;;3.13;;
57443;SDS011;43289;52.962;6.196;2023-04-24T10:32:06;10.18;;;3.30;;
57443;SDS011;43289;52.962;6.196;2023-04-24T10:34:32;8.68;;;3.22;;
57443;SDS011;43289;52.962;6.196;2023-04-24T10:36:58;8.25;;;3.00;;
57443;SDS011;43289;52.962;6.196;2023-04-24T10:39:23;9.18;;;3.15;;
57443;SDS011;43289;52.962;6.196;2023-04-24T10:41:49;9.02;;;2.40;;
57443;SDS011;43289;52.962;6.196;2023-04-24T10:44:15;12.02;;;2.80;;
57443;SDS011;43289;52.962;6.196;2023-04-24T10:46:45;10.40;;;3.60;;
57443;SDS011;43289;52.962;6.196;2023-04-24T10:49:13;10.30;;;3.10;;
57443;SDS011;43289;52.962;6.196;2023-04-24T10:51:52;7.72;;;2.10;;
57443;SDS011;43289;52.962;6.196;2023-04-24T10:54:28;6.32;;;2.80;;
57443;SDS011;43289;52.962;6.196;2023-04-24T10:59:42;6.18;;;2.10;;
57443;SDS011;43289;52.962;6.196;2023-04-24T11:02:08;5.97;;;2.15;;
57443;SDS011;43289;52.962;6.196;2023-04-24T11:04:36;10.68;;;3.08;;
57443;SDS011;43289;52.962;6.196;2023-04-24T11:07:04;8.93;;;2.42;;
57443;SDS011;43289;52.962;6.196;2023-04-24T11:09:31;8.02;;;2.55;;
57443;SDS011;43289;52.962;6.196;2023-04-24T11:12:15;7.70;;;2.45;;
57443;SDS011;43289;52.962;6.196;2023-04-24T11:17:33;6.85;;;2.15;;
57443;SDS011;43289;52.962;6.196;2023-04-24T11:20:06;4.95;;;1.90;;
57443;SDS011;43289;52.962;6.196;2023-04-24T11:22:33;6.90;;;1.80;;
57443;SDS011;43289;52.962;6.196;2023-04-24T11:25:05;7.38;;;2.28;;
57443;SDS011;43289;52.962;6.196;2023-04-24T11:27:38;7.05;;;1.90;;
57443;SDS011;43289;52.962;6.196;2023-04-24T11:30:04;10.50;;;1.92;;
57443;SDS011;43289;52.962;6.196;2023-04-24T11:35:07;6.15;;;2.25;;
57443;SDS011;43289;52.962;6.196;2023-04-24T11:40:00;5.28;;;1.77;;
57443;SDS011;43289;52.962;6.196;2023-04-24T11:42:26;8.30;;;2.50;;
57443;SDS011;43289;52.962;6.196;2023-04-24T11:44:53;7.03;;;2.22;;
57443;SDS011;43289;52.962;6.196;2023-04-24T11:47:29;13.05;;;3.25;;
57443;SDS011;43289;52.962;6.196;2023-04-24T11:49:56;7.97;;;2.22;;
57443;SDS011;43289;52.962;6.196;2023-04-24T11:52:22;4.90;;;2.00;;
57443;SDS011;43289;52.962;6.196;2023-04-24T11:54:51;4.93;;;1.52;;
57443;SDS011;43289;52.962;6.196;2023-04-24T11:57:20;3.05;;;1.23;;
57443;SDS011;43289;52.962;6.196;2023-04-24T11:59:46;3.60;;;1.70;;
57443;SDS011;43289;52.962;6.196;2023-04-24T12:02:22;2.75;;;1.40;;
57443;SDS011;43289;52.962;6.196;2023-04-24T12:04:48;2.75;;;1.98;;
57443;SDS011;43289;52.962;6.196;2023-04-24T12:07:15;3.53;;;1.38;;
57443;SDS011;43289;52.962;6.196;2023-04-24T12:09:41;3.30;;;1.25;;
57443;SDS011;43289;52.962;6.196;2023-04-24T12:12:07;3.85;;;1.20;;
57443;SDS011;43289;52.962;6.196;2023-04-24T12:14:41;2.88;;;1.40;;
57443;SDS011;43289;52.962;6.196;2023-04-24T12:17:07;2.35;;;1.23;;
57443;SDS011;43289;52.962;6.196;2023-04-24T12:19:33;4.47;;;1.35;;
57443;SDS011;43289;52.962;6.196;2023-04-24T12:22:03;3.33;;;1.30;;
57443;SDS011;43289;52.962;6.196;2023-04-24T12:24:30;3.75;;;1.30;;
57443;SDS011;43289;52.962;6.196;2023-04-24T12:26:56;4.15;;;1.27;;
57443;SDS011;43289;52.962;6.196;2023-04-24T12:29:23;3.90;;;1.52;;
57443;SDS011;43289;52.962;6.196;2023-04-24T12:31:49;4.28;;;1.50;;
57443;SDS011;43289;52.962;6.196;2023-04-24T12:34:23;4.15;;;1.50;;
57443;SDS011;43289;52.962;6.196;2023-04-24T12:36:50;4.22;;;1.30;;
57443;SDS011;43289;52.962;6.196;2023-04-24T12:39:17;5.53;;;1.30;;
57443;SDS011;43289;52.962;6.196;2023-04-24T12:41:57;5.60;;;1.88;;
57443;SDS011;43289;52.962;6.196;2023-04-24T12:44:33;8.98;;;2.65;;
57443;SDS011;43289;52.962;6.196;2023-04-24T12:46:59;3.85;;;1.52;;
57443;SDS011;43289;52.962;6.196;2023-04-24T12:49:26;5.63;;;1.40;;
57443;SDS011;43289;52.962;6.196;2023-04-24T12:51:52;4.35;;;1.35;;
57443;SDS011;43289;52.962;6.196;2023-04-24T12:54:18;2.10;;;1.27;;
57443;SDS011;43289;52.962;6.196;2023-04-24T12:56:44;4.00;;;1.55;;
57443;SDS011;43289;52.962;6.196;2023-04-24T12:59:10;4.30;;;1.15;;
57443;SDS011;43289;52.962;6.196;2023-04-24T13:01:36;2.30;;;1.27;;
57443;SDS011;43289;52.962;6.196;2023-04-24T13:04:02;4.20;;;1.52;;
57443;SDS011;43289;52.962;6.196;2023-04-24T13:06:28;3.65;;;1.08;;
57443;SDS011;43289;52.962;6.196;2023-04-24T13:08:54;4.57;;;1.25;;
57443;SDS011;43289;52.962;6.196;2023-04-24T13:11:22;7.78;;;1.40;;
57443;SDS011;43289;52.962;6.196;2023-04-24T13:13:48;3.33;;;1.20;;
57443;SDS011;43289;52.962;6.196;2023-04-24T13:16:14;4.35;;;1.45;;
57443;SDS011;43289;52.962;6.196;2023-04-24T13:18:44;3.10;;;0.90;;
57443;SDS011;43289;52.962;6.196;2023-04-24T13:21:13;7.25;;;1.95;;
57443;SDS011;43289;52.962;6.196;2023-04-24T13:23:38;3.53;;;1.52;;
57443;SDS011;43289;52.962;6.196;2023-04-24T13:26:07;3.05;;;1.23;;
57443;SDS011;43289;52.962;6.196;2023-04-24T13:28:33;3.50;;;1.20;;
57443;SDS011;43289;52.962;6.196;2023-04-24T13:30:59;3.42;;;1.27;;
57443;SDS011;43289;52.962;6.196;2023-04-24T13:33:25;4.00;;;2.38;;
57443;SDS011;43289;52.962;6.196;2023-04-24T13:35:51;9.35;;;1.55;;
57443;SDS011;43289;52.962;6.196;2023-04-24T13:38:17;3.17;;;1.25;;
57443;SDS011;43289;52.962;6.196;2023-04-24T13:40:46;5.88;;;1.70;;
57443;SDS011;43289;52.962;6.196;2023-04-24T13:43:12;5.75;;;1.88;;
57443;SDS011;43289;52.962;6.196;2023-04-24T13:45:39;6.88;;;1.65;;
57443;SDS011;43289;52.962;6.196;2023-04-24T13:50:43;6.35;;;1.58;;
57443;SDS011;43289;52.962;6.196;2023-04-24T13:53:09;5.82;;;1.90;;
57443;SDS011;43289;52.962;6.196;2023-04-24T13:55:35;7.03;;;1.88;;
57443;SDS011;43289;52.962;6.196;2023-04-24T13:58:02;7.80;;;2.00;;
57443;SDS011;43289;52.962;6.196;2023-04-24T14:00:28;8.90;;;2.30;;
57443;SDS011;43289;52.962;6.196;2023-04-24T14:02:54;7.30;;;2.22;;
57443;SDS011;43289;52.962;6.196;2023-04-24T14:05:20;5.55;;;1.77;;
57443;SDS011;43289;52.962;6.196;2023-04-24T14:07:47;6.70;;;1.95;;
57443;SDS011;43289;52.962;6.196;2023-04-24T14:10:13;5.47;;;2.28;;
57443;SDS011;43289;52.962;6.196;2023-04-24T14:12:39;11.40;;;2.65;;
57443;SDS011;43289;52.962;6.196;2023-04-24T14:15:05;7.97;;;2.40;;
57443;SDS011;43289;52.962;6.196;2023-04-24T14:17:31;8.65;;;2.70;;
57443;SDS011;43289;52.962;6.196;2023-04-24T14:20:00;6.93;;;2.60;;
57443;SDS011;43289;52.962;6.196;2023-04-24T14:22:26;9.43;;;2.55;;
57443;SDS011;43289;52.962;6.196;2023-04-24T14:24:52;5.80;;;1.35;;
57443;SDS011;43289;52.962;6.196;2023-04-24T14:27:19;6.38;;;1.95;;
57443;SDS011;43289;52.962;6.196;2023-04-24T14:29:45;7.10;;;1.90;;
57443;SDS011;43289;52.962;6.196;2023-04-24T14:32:11;7.40;;;2.17;;
57443;SDS011;43289;52.962;6.196;2023-04-24T14:34:39;7.93;;;2.13;;
57443;SDS011;43289;52.962;6.196;2023-04-24T14:37:05;6.15;;;2.25;;
57443;SDS011;43289;52.962;6.196;2023-04-24T14:39:31;4.90;;;1.80;;
57443;SDS011;43289;52.962;6.196;2023-04-24T14:41:57;6.20;;;2.13;;
57443;SDS011;43289;52.962;6.196;2023-04-24T14:44:23;8.05;;;2.72;;
57443;SDS011;43289;52.962;6.196;2023-04-24T14:46:49;10.77;;;2.40;;
57443;SDS011;43289;52.962;6.196;2023-04-24T14:49:15;6.45;;;2.45;;
57443;SDS011;43289;52.962;6.196;2023-04-24T14:51:41;7.07;;;2.85;;
57443;SDS011;43289;52.962;6.196;2023-04-24T14:54:08;10.05;;;2.50;;
57443;SDS011;43289;52.962;6.196;2023-04-24T14:56:34;9.73;;;2.83;;
57443;SDS011;43289;52.962;6.196;2023-04-24T14:59:00;12.93;;;2.85;;
57443;SDS011;43289;52.962;6.196;2023-04-24T15:01:26;9.75;;;3.80;;
57443;SDS011;43289;52.962;6.196;2023-04-24T15:03:52;6.97;;;2.72;;
57443;SDS011;43289;52.962;6.196;2023-04-24T15:06:18;10.10;;;3.00;;
57443;SDS011;43289;52.962;6.196;2023-04-24T15:08:45;10.05;;;3.55;;
57443;SDS011;43289;52.962;6.196;2023-04-24T15:11:11;10.10;;;2.83;;